createdAt,value
2023-01-07T00:01:31.804Z,0.40
2023-01-07T00:04:00.715Z,0.68
2023-01-07T00:06:32.959Z,0.83
2023-01-07T00:09:01.403Z,0.53
2023-01-07T00:11:34.101Z,0.61
2023-01-07T00:14:02.563Z,0.23
2023-01-07T00:16:32.027Z,0.18
2023-01-07T00:19:01.357Z,0.06
2023-01-07T00:21:29.939Z,0.60
2023-01-07T00:24:00.095Z,0.19
2023-01-07T00:26:30.956Z,0.50
2023-01-07T00:28:59.419Z,0.60
2023-01-07T00:31:32.489Z,0.82
2023-01-07T00:34:00.930Z,0.70
2023-01-07T00:36:31.241Z,0.54
2023-01-07T00:39:01.121Z,0.18
2023-01-07T00:41:29.645Z,0.63
2023-01-07T00:43:58.052Z,0.75
2023-01-07T00:46:26.793Z,0.64
2023-01-07T00:48:55.213Z,0.28
2023-01-07T00:51:23.577Z,-0.19
2023-01-07T00:53:51.965Z,-0.02
2023-01-07T00:56:20.409Z,0.30
2023-01-07T00:58:48.773Z,0.57
2023-01-07T01:01:17.724Z,0.39
2023-01-07T01:03:46.929Z,0.22
2023-01-07T01:06:16.031Z,-0.12
2023-01-07T01:08:45.564Z,-0.16
2023-01-07T01:11:15.371Z,-0.80
2023-01-07T01:13:44.379Z,-0.18
2023-01-07T01:16:16.890Z,-0.36
2023-01-07T01:18:45.565Z,-0.06
2023-01-07T01:21:15.082Z,-0.86
2023-01-07T01:23:43.563Z,-1.00
2023-01-07T01:26:14.678Z,-0.38
2023-01-07T01:28:43.754Z,-0.67
2023-01-07T01:31:13.837Z,-0.36
2023-01-07T01:33:47.494Z,-0.37
2023-01-07T01:36:16.143Z,-0.51
2023-01-07T01:38:44.555Z,-0.19
2023-01-07T01:41:14.406Z,-0.80
2023-01-07T01:43:43.331Z,-0.72
2023-01-07T01:46:34.458Z,-0.31
2023-01-07T01:49:20.267Z,-0.29
2023-01-07T01:51:52.815Z,-0.72
2023-01-07T01:54:21.247Z,-0.87
2023-01-07T01:56:53.995Z,-0.86
2023-01-07T01:59:24.634Z,-0.53
2023-01-07T02:01:55.270Z,-0.64
2023-01-07T02:04:24.873Z,-0.52
2023-01-07T02:07:07.796Z,-0.01
2023-01-07T02:09:39.026Z,-0.43
2023-01-07T02:12:18.423Z,-0.31
2023-01-07T02:15:04.319Z,-0.87
2023-01-07T02:17:57.185Z,-0.69
2023-01-07T02:20:38.474Z,-0.51
2023-01-07T02:23:38.027Z,-0.27
2023-01-07T02:26:53.649Z,-0.21
2023-01-07T02:29:58.724Z,-0.22
2023-01-07T02:32:36.813Z,-0.30
2023-01-07T02:35:30.910Z,-0.15
2023-01-07T02:37:59.583Z,-0.02
2023-01-07T02:40:39.811Z,-0.05
2023-01-07T02:43:17.622Z,0.16
2023-01-07T02:46:13.930Z,-0.28
2023-01-07T02:48:42.387Z,0.10
2023-01-07T02:51:10.845Z,-0.01
2023-01-07T02:53:40.093Z,-0.37
2023-01-07T02:56:17.461Z,-0.03
2023-01-07T02:59:17.206Z,-0.29
2023-01-07T03:02:09.934Z,-0.85
2023-01-07T03:04:53.857Z,-0.69
2023-01-07T03:07:22.146Z,-0.77
2023-01-07T03:10:01.966Z,-0.58
2023-01-07T03:12:35.259Z,-0.69
2023-01-07T03:15:28.931Z,-0.32
2023-01-07T03:18:03.660Z,-0.26
2023-01-07T03:20:33.637Z,-0.95
2023-01-07T03:23:02.378Z,-0.51
2023-01-07T03:25:30.751Z,-1.54
2023-01-07T03:27:59.090Z,-0.82
2023-01-07T03:30:29.152Z,-0.80
2023-01-07T03:33:02.676Z,-0.78
2023-01-07T03:35:32.266Z,-0.52
2023-01-07T03:38:01.383Z,-1.65
2023-01-07T03:40:30.495Z,-0.97
2023-01-07T03:42:59.621Z,-1.28
2023-01-07T03:45:28.377Z,-1.63
2023-01-07T03:47:59.517Z,-1.06
2023-01-07T03:50:35.208Z,-0.56
2023-01-07T03:53:03.868Z,-1.05
2023-01-07T03:55:35.915Z,-0.59
2023-01-07T03:58:05.309Z,-1.64
2023-01-07T04:00:33.771Z,-1.18
2023-01-07T04:03:12.153Z,-0.89
2023-01-07T04:05:43.973Z,-2.02
2023-01-07T04:08:13.199Z,-1.35
2023-01-07T04:10:42.627Z,-1.09
2023-01-07T04:13:12.951Z,-0.76
2023-01-07T04:15:45.022Z,-2.04
2023-01-07T04:18:13.695Z,-1.22
2023-01-07T04:20:46.283Z,-1.30
2023-01-07T04:23:15.591Z,-1.46
2023-01-07T04:25:49.493Z,-1.20
2023-01-07T04:28:21.779Z,-1.09
2023-01-07T04:30:50.343Z,-0.78
2023-01-07T04:33:19.434Z,-1.04
2023-01-07T04:35:49.156Z,-1.97
2023-01-07T04:38:18.805Z,-1.51
2023-01-07T04:40:47.381Z,-1.43
2023-01-07T04:43:15.804Z,-1.19
2023-01-07T04:45:44.304Z,-1.25
2023-01-07T04:48:14.672Z,-0.90
2023-01-07T04:50:43.111Z,-1.21
2023-01-07T04:53:11.548Z,-0.96
2023-01-07T04:55:41.294Z,-1.32
2023-01-07T04:58:10.037Z,-0.88
2023-01-07T05:00:39.328Z,-0.70
2023-01-07T05:03:07.777Z,-0.92
2023-01-07T05:05:37.037Z,-1.42
2023-01-07T05:08:05.783Z,-1.41
2023-01-07T05:10:34.235Z,-1.20
2023-01-07T05:13:06.997Z,-1.20
2023-01-07T05:15:37.229Z,-1.16
2023-01-07T05:18:06.337Z,-0.99
2023-01-07T05:20:35.215Z,-1.01
2023-01-07T05:23:06.104Z,-1.78
2023-01-07T05:25:35.989Z,-1.31
2023-01-07T05:28:04.529Z,-1.07
2023-01-07T05:30:36.009Z,-1.05
2023-01-07T05:33:07.540Z,-1.76
2023-01-07T05:35:37.458Z,-1.27
2023-01-07T05:38:05.949Z,-1.38
2023-01-07T05:40:34.692Z,-1.30
2023-01-07T05:43:03.221Z,-2.46
2023-01-07T05:45:31.670Z,-1.80
2023-01-07T05:48:00.109Z,-1.78
2023-01-07T05:50:28.538Z,-1.67
2023-01-07T05:52:56.996Z,-1.43
2023-01-07T05:55:25.315Z,-1.29
2023-01-07T05:57:53.741Z,-1.77
2023-01-07T06:00:22.350Z,-2.59
2023-01-07T06:02:50.762Z,-1.64
2023-01-07T06:05:19.314Z,-1.47
2023-01-07T06:07:47.811Z,-1.26
2023-01-07T06:10:16.278Z,-2.40
2023-01-07T06:12:44.630Z,-1.67
2023-01-07T06:15:13.154Z,-1.71
2023-01-07T06:17:41.648Z,-1.46
2023-01-07T06:20:11.186Z,-1.42
2023-01-07T06:22:39.646Z,-1.57
2023-01-07T06:25:08.358Z,-2.16
2023-01-07T06:27:36.784Z,-1.60
2023-01-07T06:30:06.127Z,-1.15
2023-01-07T06:32:40.619Z,-1.18
2023-01-07T06:35:09.826Z,-1.81
2023-01-07T06:37:38.724Z,-1.00
2023-01-07T06:40:07.871Z,-1.08
2023-01-07T06:42:36.334Z,-0.90
2023-01-07T06:45:04.918Z,-2.03
2023-01-07T06:47:33.337Z,-1.21
2023-01-07T06:50:01.777Z,-1.16
2023-01-07T06:52:30.420Z,-0.78
2023-01-07T06:54:58.751Z,-0.28
2023-01-07T06:57:27.188Z,-0.46
2023-01-07T06:59:55.529Z,-0.15
2023-01-07T07:02:28.197Z,0.48
2023-01-07T07:04:56.719Z,1.08
2023-01-07T07:07:25.824Z,1.67
2023-01-07T07:09:54.225Z,2.14
2023-01-07T07:12:22.664Z,2.76
2023-01-07T07:14:51.160Z,3.09
2023-01-07T07:17:19.576Z,3.10
2023-01-07T07:19:48.014Z,3.14
2023-01-07T07:22:16.335Z,3.18
2023-01-07T07:24:44.834Z,3.17
2023-01-07T07:27:13.151Z,3.30
2023-01-07T07:29:41.576Z,3.61
2023-01-07T07:32:10.195Z,3.94
2023-01-07T07:34:38.565Z,4.19
2023-01-07T07:37:07.084Z,4.13
2023-01-07T07:39:35.391Z,4.07
2023-01-07T07:42:04.881Z,4.45
2023-01-07T07:44:33.250Z,4.55
2023-01-07T07:47:01.721Z,4.63
2023-01-07T07:49:30.268Z,4.59
2023-01-07T07:51:58.626Z,4.76
2023-01-07T07:54:28.490Z,5.23
2023-01-07T07:56:58.658Z,5.85
2023-01-07T07:59:27.076Z,6.83
2023-01-07T08:01:55.524Z,7.79
2023-01-07T08:04:24.124Z,8.24
2023-01-07T08:06:52.450Z,8.48
2023-01-07T08:09:20.961Z,8.47
2023-01-07T08:11:49.340Z,8.43
2023-01-07T08:14:17.776Z,8.11
2023-01-07T08:16:46.323Z,8.05
2023-01-07T08:19:15.631Z,8.05
2023-01-07T08:21:44.242Z,7.39
2023-01-07T08:24:12.781Z,7.50
2023-01-07T08:26:41.490Z,7.32
2023-01-07T08:29:10.052Z,6.95
2023-01-07T08:31:38.625Z,7.41
2023-01-07T08:34:07.340Z,8.18
2023-01-07T08:36:35.770Z,8.94
2023-01-07T08:39:04.312Z,9.97
2023-01-07T08:41:32.702Z,11.10
2023-01-07T08:44:01.105Z,12.42
2023-01-07T08:46:29.474Z,13.64
2023-01-07T08:48:57.933Z,14.67
2023-01-07T08:51:26.507Z,15.77
2023-01-07T08:53:55.677Z,16.78
2023-01-07T08:56:43.544Z,18.02
2023-01-07T08:59:38.293Z,19.24
2023-01-07T09:02:35.664Z,20.30
2023-01-07T09:05:38.039Z,21.22
2023-01-07T09:08:37.264Z,22.17
2023-01-07T09:11:39.738Z,22.72
2023-01-07T09:14:37.452Z,23.41
2023-01-07T09:17:36.162Z,24.01
2023-01-07T09:23:05.981Z,25.05
2023-01-07T09:25:34.391Z,25.36
2023-01-07T09:28:02.882Z,25.65
2023-01-07T09:30:31.306Z,25.61
2023-01-07T09:32:59.846Z,24.75
2023-01-07T09:35:28.373Z,23.28
2023-01-07T09:37:56.937Z,21.83
2023-01-07T09:40:31.506Z,20.41
2023-01-07T09:43:09.126Z,18.20
2023-01-07T09:45:50.749Z,16.73
2023-01-07T09:48:27.235Z,15.64
2023-01-07T09:51:14.615Z,14.84
2023-01-07T09:53:44.671Z,14.36
2023-01-07T09:56:20.280Z,13.34
2023-01-07T09:58:49.104Z,13.02
2023-01-07T10:01:45.126Z,12.81
2023-01-07T10:04:32.911Z,11.94
2023-01-07T10:07:23.479Z,11.29
2023-01-07T10:10:18.488Z,10.92
2023-01-07T10:13:06.081Z,10.82
2023-01-07T10:15:41.315Z,10.14
2023-01-07T10:18:33.834Z,10.70
2023-01-07T10:21:24.724Z,10.32
2023-01-07T10:24:05.074Z,10.15
2023-01-07T10:26:38.406Z,9.61
2023-01-07T10:29:28.736Z,9.50
2023-01-07T10:31:57.659Z,9.61
2023-01-07T10:34:33.068Z,9.66
2023-01-07T10:37:03.973Z,9.59
2023-01-07T10:39:58.166Z,9.47
2023-01-07T10:42:37.620Z,9.89
2023-01-07T10:45:29.527Z,10.03
2023-01-07T10:48:26.127Z,9.60
2023-01-07T10:51:35.204Z,9.48
2023-01-07T10:54:25.367Z,9.86
2023-01-07T10:57:01.878Z,10.02
2023-01-07T10:59:30.565Z,9.23
2023-01-07T11:01:59.716Z,8.92
2023-01-07T11:04:28.585Z,8.91
2023-01-07T11:07:04.700Z,8.95
2023-01-07T11:09:37.733Z,9.63
2023-01-07T11:12:15.126Z,9.73
2023-01-07T11:14:44.438Z,9.29
2023-01-07T11:17:53.922Z,10.05
2023-01-07T11:20:54.161Z,10.50
2023-01-07T11:23:42.804Z,10.26
2023-01-07T11:26:13.966Z,10.12
2023-01-07T11:29:14.648Z,10.22
2023-01-07T11:31:50.141Z,10.25
2023-01-07T11:34:26.396Z,10.76
2023-01-07T11:36:56.139Z,10.89
2023-01-07T11:39:27.842Z,10.78
2023-01-07T11:42:22.542Z,10.90
2023-01-07T11:44:57.839Z,10.81
2023-01-07T11:47:26.974Z,11.49
2023-01-07T11:49:58.087Z,11.25
2023-01-07T11:52:27.252Z,10.91
2023-01-07T11:54:56.780Z,11.20
2023-01-07T11:57:27.079Z,11.25
2023-01-07T12:00:17.665Z,11.38
2023-01-07T12:02:46.343Z,11.48
2023-01-07T12:05:28.218Z,11.74
2023-01-07T12:07:58.874Z,11.11
2023-01-07T12:10:37.978Z,11.43
2023-01-07T12:13:19.663Z,11.90
2023-01-07T12:15:55.051Z,11.61
2023-01-07T12:18:55.709Z,11.83
2023-01-07T12:21:45.943Z,11.62
2023-01-07T12:24:34.916Z,11.61
2023-01-07T12:27:21.505Z,11.90
2023-01-07T12:30:05.753Z,12.57
2023-01-07T12:32:46.701Z,12.26
2023-01-07T12:35:18.784Z,12.09
2023-01-07T12:38:16.734Z,11.81
2023-01-07T12:41:00.671Z,10.94
2023-01-07T12:43:33.328Z,12.37
2023-01-07T12:46:03.539Z,12.61
2023-01-07T12:48:47.616Z,12.37
2023-01-07T12:51:21.499Z,12.53
2023-01-07T12:54:01.195Z,12.64
2023-01-07T12:57:20.350Z,12.85
2023-01-07T13:00:17.671Z,12.75
2023-01-07T13:03:11.636Z,12.81
2023-01-07T13:05:43.959Z,13.00
2023-01-07T13:08:20.903Z,13.06
2023-01-07T13:10:52.498Z,13.23
2023-01-07T13:13:51.156Z,13.30
2023-01-07T13:16:19.583Z,13.36
2023-01-07T13:18:48.096Z,13.12
2023-01-07T13:21:17.312Z,13.11
2023-01-07T13:24:12.043Z,13.33
2023-01-07T13:27:02.325Z,13.14
2023-01-07T13:29:54.133Z,13.23
2023-01-07T13:32:56.384Z,13.28
2023-01-07T13:35:30.074Z,13.19
2023-01-07T13:38:14.934Z,13.22
2023-01-07T13:40:55.626Z,13.03
2023-01-07T13:43:45.576Z,13.26
2023-01-07T13:46:19.440Z,13.28
2023-01-07T13:48:49.654Z,13.32
2023-01-07T13:51:29.448Z,13.33
2023-01-07T13:53:58.265Z,13.26
2023-01-07T13:56:26.673Z,13.26
2023-01-07T13:58:56.091Z,13.27
2023-01-07T14:01:34.143Z,13.18
2023-01-07T14:04:07.199Z,13.20
2023-01-07T14:06:42.145Z,13.14
2023-01-07T14:09:13.698Z,12.24
2023-01-07T14:12:36.349Z,12.70
2023-01-07T14:15:22.630Z,12.53
2023-01-07T14:17:56.863Z,12.33
2023-01-07T14:20:27.361Z,11.88
2023-01-07T14:23:24.454Z,12.30
2023-01-07T14:26:15.446Z,12.31
2023-01-07T14:28:52.712Z,12.35
2023-01-07T14:31:24.537Z,12.11
2023-01-07T14:33:58.549Z,12.14
2023-01-07T14:37:02.040Z,12.02
2023-01-07T14:39:44.607Z,11.90
2023-01-07T14:42:28.438Z,11.57
2023-01-07T14:44:56.976Z,11.33
2023-01-07T14:47:43.858Z,11.05
2023-01-07T14:50:27.953Z,11.00
2023-01-07T14:53:13.030Z,10.95
2023-01-07T14:55:44.135Z,10.77
2023-01-07T14:58:24.677Z,10.62
2023-01-07T15:01:23.765Z,10.28
2023-01-07T15:03:53.520Z,10.15
2023-01-07T15:06:51.781Z,9.92
2023-01-07T15:09:50.174Z,9.23
2023-01-07T15:12:44.784Z,9.41
2023-01-07T15:15:50.715Z,8.90
2023-01-07T15:18:20.052Z,8.60
2023-01-07T15:21:04.853Z,8.40
2023-01-07T15:23:50.627Z,8.30
2023-01-07T15:26:47.428Z,8.22
2023-01-07T15:29:46.766Z,8.36
2023-01-07T15:32:28.079Z,8.36
2023-01-07T15:34:57.718Z,8.13
2023-01-07T15:37:26.606Z,8.27
2023-01-07T15:39:57.645Z,7.76
2023-01-07T15:42:30.264Z,7.94
2023-01-07T15:45:00.257Z,8.17
2023-01-07T15:47:40.176Z,8.12
2023-01-07T15:50:42.211Z,7.70
2023-01-07T15:53:13.811Z,6.83
2023-01-07T15:56:08.114Z,6.70
2023-01-07T15:58:42.850Z,6.61
2023-01-07T16:01:21.385Z,6.67
2023-01-07T16:03:55.764Z,6.80
2023-01-07T16:06:35.902Z,6.23
2023-01-07T16:09:19.623Z,6.57
2023-01-07T16:11:50.671Z,6.88
2023-01-07T16:14:25.799Z,6.52
2023-01-07T16:17:16.305Z,6.43
2023-01-07T16:19:46.980Z,6.41
2023-01-07T16:22:18.652Z,6.40
2023-01-07T16:24:53.635Z,6.24
2023-01-07T16:27:32.092Z,6.15
2023-01-07T16:30:03.367Z,6.21
2023-01-07T16:32:36.423Z,6.38
2023-01-07T16:35:16.558Z,5.90
2023-01-07T16:37:47.370Z,5.40
2023-01-07T16:40:37.062Z,5.42
2023-01-07T16:43:06.596Z,5.23
2023-01-07T16:45:35.995Z,5.21
2023-01-07T16:48:26.188Z,5.23
2023-01-07T16:51:02.660Z,4.73
2023-01-07T16:53:36.200Z,3.88
2023-01-07T16:56:20.736Z,3.34
2023-01-07T16:58:53.764Z,3.91
2023-01-07T17:01:36.497Z,4.19
2023-01-07T17:04:09.784Z,4.75
2023-01-07T17:06:43.342Z,4.67
2023-01-07T17:09:21.692Z,5.01
2023-01-07T17:11:53.384Z,3.92
2023-01-07T17:14:36.416Z,3.93
2023-01-07T17:17:16.162Z,4.15
2023-01-07T17:19:58.212Z,4.38
2023-01-07T17:22:34.094Z,4.27
2023-01-07T17:25:11.300Z,3.73
2023-01-07T17:27:45.524Z,4.29
2023-01-07T17:30:19.381Z,4.91
2023-01-07T17:32:52.064Z,4.89
2023-01-07T17:35:23.628Z,4.95
2023-01-07T17:37:53.246Z,5.05
2023-01-07T17:40:23.024Z,4.82
2023-01-07T17:43:10.859Z,4.76
2023-01-07T17:45:41.627Z,4.76
2023-01-07T17:48:14.868Z,4.83
2023-01-07T17:50:44.696Z,5.00
2023-01-07T17:53:21.711Z,4.84
2023-01-07T17:55:52.087Z,4.75
2023-01-07T17:58:33.880Z,4.70
2023-01-07T18:01:07.899Z,4.30
2023-01-07T18:03:37.457Z,4.18
2023-01-07T18:06:23.337Z,3.75
2023-01-07T18:08:53.353Z,3.28
2023-01-07T18:11:43.134Z,3.86
2023-01-07T18:14:20.385Z,4.23
2023-01-07T18:16:51.407Z,3.66
2023-01-07T18:19:20.686Z,4.18
2023-01-07T18:21:50.880Z,4.10
2023-01-07T18:24:23.617Z,3.50
2023-01-07T18:26:56.846Z,3.05
2023-01-07T18:29:26.648Z,3.61
2023-01-07T18:31:58.524Z,3.65
2023-01-07T18:34:29.527Z,3.36
2023-01-07T18:36:59.517Z,3.28
2023-01-07T18:39:29.466Z,3.15
2023-01-07T18:42:00.907Z,2.70
2023-01-07T18:44:30.774Z,2.50
2023-01-07T18:47:00.729Z,2.98
2023-01-07T18:49:31.022Z,3.19
2023-01-07T18:52:02.847Z,2.51
2023-01-07T18:54:34.618Z,2.44
2023-01-07T18:57:06.821Z,2.00
2023-01-07T18:59:36.656Z,2.26
2023-01-07T19:02:09.227Z,2.34
2023-01-07T19:04:42.544Z,2.42
2023-01-07T19:07:12.536Z,2.63
2023-01-07T19:09:42.561Z,2.91
2023-01-07T19:12:13.155Z,3.02
2023-01-07T19:14:42.574Z,3.01
2023-01-07T19:17:13.149Z,2.43
2023-01-07T19:19:48.773Z,3.00
2023-01-07T19:22:21.875Z,2.96
2023-01-07T19:24:56.962Z,2.65
2023-01-07T19:27:31.020Z,2.86
2023-01-07T19:30:01.001Z,2.75
2023-01-07T19:32:32.188Z,1.99
2023-01-07T19:35:02.531Z,2.47
2023-01-07T19:37:32.213Z,2.57
2023-01-07T19:40:01.850Z,2.63
2023-01-07T19:42:35.508Z,1.97
2023-01-07T19:45:07.823Z,1.92
2023-01-07T19:47:41.167Z,2.10
2023-01-07T19:50:12.492Z,2.21
2023-01-07T19:52:44.305Z,2.34
2023-01-07T19:55:15.938Z,2.34
2023-01-07T19:57:47.095Z,2.40
2023-01-07T20:00:17.252Z,2.27
2023-01-07T20:02:47.094Z,2.41
2023-01-07T20:05:17.635Z,2.47
2023-01-07T20:07:47.837Z,2.43
2023-01-07T20:10:26.387Z,2.21
2023-01-07T20:12:55.794Z,1.68
2023-01-07T20:15:28.893Z,1.88
2023-01-07T20:18:00.003Z,1.60
2023-01-07T20:20:31.519Z,1.16
2023-01-07T20:23:01.728Z,1.74
2023-01-07T20:25:31.444Z,1.33
2023-01-07T20:28:01.029Z,1.38
2023-01-07T20:30:31.062Z,1.82
2023-01-07T20:33:01.145Z,1.33
2023-01-07T20:35:30.780Z,1.80
2023-01-07T20:37:59.739Z,1.78
2023-01-07T20:40:30.241Z,1.90
2023-01-07T20:43:00.548Z,1.50
2023-01-07T20:45:32.939Z,1.47
2023-01-07T20:48:04.419Z,1.39
2023-01-07T20:50:36.132Z,1.24
2023-01-07T20:53:05.794Z,1.67
2023-01-07T20:55:37.291Z,0.53
2023-01-07T20:58:06.947Z,1.25
2023-01-07T21:00:35.999Z,1.47
2023-01-07T21:03:06.434Z,1.03
2023-01-07T21:05:35.509Z,1.38
2023-01-07T21:08:04.254Z,1.35
2023-01-07T21:10:33.849Z,0.71
2023-01-07T21:13:03.590Z,1.20
2023-01-07T21:15:32.503Z,1.37
2023-01-07T21:18:01.499Z,1.44
2023-01-07T21:20:30.805Z,1.43
2023-01-07T21:23:01.486Z,1.68
2023-01-07T21:25:30.896Z,1.34
2023-01-07T21:27:59.677Z,1.07
2023-01-07T21:30:29.319Z,0.61
2023-01-07T21:32:58.648Z,0.44
2023-01-07T21:35:27.556Z,0.32
2023-01-07T21:37:56.366Z,0.62
2023-01-07T21:40:25.264Z,0.91
2023-01-07T21:42:53.686Z,0.35
2023-01-07T21:45:22.188Z,0.32
2023-01-07T21:47:50.626Z,0.26
2023-01-07T21:50:19.153Z,0.40
2023-01-07T21:52:47.872Z,0.90
2023-01-07T21:55:16.256Z,1.14
2023-01-07T21:57:44.814Z,1.25
2023-01-07T22:00:14.931Z,0.44
2023-01-07T22:02:45.060Z,0.83
2023-01-07T22:05:13.575Z,0.95
2023-01-07T22:07:41.973Z,0.17
2023-01-07T22:10:10.827Z,0.53
2023-01-07T22:12:39.880Z,0.78
2023-01-07T22:15:09.283Z,0.13
2023-01-07T22:17:37.679Z,0.24
2023-01-07T22:20:06.621Z,0.04
2023-01-07T22:22:35.047Z,0.34
2023-01-07T22:25:03.557Z,-0.28
2023-01-07T22:27:32.008Z,-0.14
2023-01-07T22:30:01.169Z,-0.17
2023-01-07T22:32:30.067Z,0.38
2023-01-07T22:34:59.181Z,0.72
2023-01-07T22:37:27.594Z,0.73
2023-01-07T22:39:59.236Z,0.36
2023-01-07T22:42:37.784Z,0.51
2023-01-07T22:45:10.085Z,0.56
2023-01-07T22:47:39.580Z,0.81
2023-01-07T22:50:08.765Z,0.23
2023-01-07T22:52:37.752Z,-0.06
2023-01-07T22:55:06.735Z,0.09
2023-01-07T22:57:35.400Z,0.47
2023-01-07T23:00:08.032Z,-0.41
2023-01-07T23:02:36.527Z,-0.51
2023-01-07T23:05:05.295Z,0.01
2023-01-07T23:07:33.936Z,-0.12
2023-01-07T23:10:02.457Z,-0.43
2023-01-07T23:12:30.789Z,-0.39
2023-01-07T23:14:59.196Z,-0.70
2023-01-07T23:17:29.289Z,-0.56
2023-01-07T23:19:57.612Z,-0.97
2023-01-07T23:22:25.995Z,-0.20
2023-01-07T23:24:54.434Z,-0.33
2023-01-07T23:27:22.909Z,-0.31
2023-01-07T23:29:51.219Z,-0.37
2023-01-07T23:32:19.844Z,-0.58
2023-01-07T23:34:48.227Z,-0.43
2023-01-07T23:37:16.594Z,-0.49
2023-01-07T23:39:44.905Z,-0.05
2023-01-07T23:42:13.317Z,0.20
2023-01-07T23:44:41.810Z,0.31
2023-01-07T23:47:10.112Z,0.21
2023-01-07T23:49:38.651Z,0.28
2023-01-07T23:52:07.031Z,-0.19
2023-01-07T23:54:35.410Z,-0.80
2023-01-07T23:57:03.904Z,-0.07
2023-01-07T23:59:32.224Z,-0.38
